Time;durP1;ratioP1;P1;durP2;ratioP2;P2;SDS_P1;SDS_P2;PMS_P1;PMS_P2;Temp;Humidity;BMP_temperature;BMP_pressure;BME280_temperature;BME280_humidity;BME280_pressure;Samples;Min_cycle;Max_cycle;Signal;HPM_P1;HPM_P2
2021/04/24 00:02:15;;;;;;;6.72;2.63;;;;;;;9.08;39.08;100989.88;5052785;28;20045;-83
2021/04/24 00:04:42;;;;;;;3.15;2.05;;;;;;;9.06;38.56;100995.16;5052214;28;20056;-83
2021/04/24 00:07:09;;;;;;;5.88;2.70;;;;;;;9.03;38.65;100986.50;5051827;28;20103;-83
2021/04/24 00:09:36;;;;;;;6.28;2.17;;;;;;;8.99;38.56;100993.63;5052721;28;20082;-83
2021/04/24 00:12:04;;;;;;;5.55;2.58;;;;;;;8.95;39.01;100992.00;5053451;28;20071;-83
2021/04/24 00:14:30;;;;;;;6.15;2.20;;;;;;;8.92;38.69;100992.09;5052298;28;20075;-83
2021/04/24 00:16:56;;;;;;;7.00;2.42;;;;;;;8.88;38.95;100993.06;5054832;28;20049;-83
2021/04/24 00:19:23;;;;;;;8.45;2.72;;;;;;;8.84;38.96;100994.94;5054971;28;20175;-83
2021/04/24 00:21:50;;;;;;;5.18;2.53;;;;;;;8.81;39.19;100989.78;5055086;28;20048;-83
2021/04/24 00:24:16;;;;;;;5.70;2.83;;;;;;;8.79;39.80;100991.59;5054227;28;20064;-83
2021/04/24 00:26:43;;;;;;;8.23;3.00;;;;;;;8.78;39.84;100997.78;5056799;28;20049;-83
2021/04/24 00:29:09;;;;;;;6.97;3.55;;;;;;;8.77;39.70;100991.66;5056373;28;20053;-84
2021/04/24 00:31:35;;;;;;;5.72;2.83;;;;;;;8.75;39.76;100990.84;5056148;28;20049;-84
2021/04/24 00:34:03;;;;;;;6.45;2.92;;;;;;;8.75;39.72;100992.59;5055751;28;20061;-83
2021/04/24 00:36:31;;;;;;;8.48;3.00;;;;;;;8.72;40.34;100986.50;5056578;28;20049;-83
2021/04/24 00:38:57;;;;;;;6.35;3.25;;;;;;;8.72;40.53;100985.69;5054919;28;20059;-83
2021/04/24 00:41:24;;;;;;;7.57;3.25;;;;;;;8.71;40.64;100982.19;5052755;28;20052;-83
2021/04/24 00:43:51;;;;;;;6.28;3.30;;;;;;;8.70;40.61;100982.22;5051063;28;20399;-83
2021/04/24 00:46:17;;;;;;;6.15;3.28;;;;;;;8.70;40.27;100979.59;5055025;28;20639;-83
2021/04/24 00:48:44;;;;;;;7.10;3.47;;;;;;;8.69;40.50;100994.50;5055054;28;20048;-83
2021/04/24 00:51:11;;;;;;;5.70;3.65;;;;;;;8.67;40.75;100991.03;5053023;28;20059;-83
2021/04/24 00:53:37;;;;;;;10.15;3.83;;;;;;;8.66;40.80;100980.59;5051409;28;20049;-83
2021/04/24 00:56:06;;;;;;;8.20;3.33;;;;;;;8.64;41.57;100980.66;5050964;28;20052;-83
2021/04/24 00:58:34;;;;;;;8.73;4.35;;;;;;;8.64;41.19;100985.91;5051933;28;20056;-83
2021/04/24 01:01:02;;;;;;;12.20;3.60;;;;;;;8.63;41.36;100984.16;5051981;28;20053;-83
2021/04/24 01:03:29;;;;;;;8.65;4.28;;;;;;;8.62;41.46;100987.69;5053772;28;20399;-83
2021/04/24 01:05:55;;;;;;;8.50;3.33;;;;;;;8.62;41.34;100986.84;5054701;28;20049;-83
2021/04/24 01:08:21;;;;;;;8.80;3.50;;;;;;;8.59;40.90;100975.53;5052059;28;20053;-83
2021/04/24 01:10:47;;;;;;;8.48;4.28;;;;;;;8.56;41.24;100978.22;5050987;28;20045;-83
2021/04/24 01:13:14;;;;;;;7.80;4.45;;;;;;;8.53;41.61;100986.22;5053207;28;20417;-83
2021/04/24 01:15:41;;;;;;;7.10;3.95;;;;;;;8.51;41.82;100980.09;5054146;28;20067;-83
2021/04/24 01:18:08;;;;;;;9.23;4.10;;;;;;;8.48;41.74;100988.94;5052556;28;20513;-83
2021/04/24 01:20:35;;;;;;;9.10;3.90;;;;;;;8.46;41.67;100982.00;5051857;28;20048;-83
2021/04/24 01:23:04;;;;;;;7.03;3.75;;;;;;;8.40;41.66;100977.78;5052542;28;20075;-83
2021/04/24 01:25:30;;;;;;;9.73;4.15;;;;;;;8.38;41.89;100974.38;5052534;28;20080;-83
2021/04/24 01:27:59;;;;;;;14.35;4.80;;;;;;;8.33;42.43;100971.84;5053455;28;20548;-83
2021/04/24 01:30:30;;;;;;;9.52;4.50;;;;;;;8.31;43.03;100967.56;5054305;28;20048;-83
2021/04/24 01:32:57;;;;;;;9.40;4.30;;;;;;;8.30;42.35;100965.84;5055715;28;20049;-83
2021/04/24 01:35:26;;;;;;;6.72;4.18;;;;;;;8.27;42.56;100964.16;5055708;28;20048;-83
2021/04/24 01:37:53;;;;;;;8.20;4.00;;;;;;;8.26;42.10;100962.44;5054699;28;20060;-83
2021/04/24 01:40:20;;;;;;;9.05;4.72;;;;;;;8.25;42.32;100965.09;5058042;28;20048;-82
2021/04/24 01:42:47;;;;;;;8.98;4.55;;;;;;;8.20;42.76;100962.59;5059661;28;20067;-83
2021/04/24 01:45:15;;;;;;;11.57;3.95;;;;;;;8.16;42.87;100964.47;5059397;28;20045;-83
2021/04/24 01:47:43;;;;;;;9.75;4.13;;;;;;;8.15;42.74;100956.63;5057488;28;20453;-83
2021/04/24 01:50:20;;;;;;;10.77;4.45;;;;;;;8.10;43.98;100954.13;5059548;28;20509;-83
2021/04/24 01:52:50;;;;;;;9.77;4.47;;;;;;;8.10;43.06;100948.03;5059387;28;20055;-83
2021/04/24 01:55:25;;;;;;;9.25;4.13;;;;;;;8.07;43.96;100956.81;5055097;28;20072;-85
2021/04/24 01:57:54;;;;;;;7.88;3.90;;;;;;;8.06;42.82;100952.50;5054632;28;20049;-85
2021/04/24 02:00:29;;;;;;;9.80;4.03;;;;;;;8.04;43.93;100960.38;5053691;28;20045;-85
2021/04/24 02:02:57;;;;;;;9.52;4.45;;;;;;;8.04;43.43;100954.31;5055231;28;20053;-85
2021/04/24 02:05:23;;;;;;;7.93;4.15;;;;;;;8.02;42.90;100962.22;5053821;28;20509;-85
2021/04/24 02:08:03;;;;;;;7.57;4.57;;;;;;;7.99;44.61;100959.66;5053472;28;20488;-85
2021/04/24 02:10:30;;;;;;;9.73;4.53;;;;;;;8.02;43.06;100963.97;5053767;28;20102;-85
2021/04/24 02:12:58;;;;;;;9.73;4.55;;;;;;;7.99;43.39;100949.16;5053395;28;20107;-85
2021/04/24 02:15:25;;;;;;;10.73;4.82;;;;;;;7.98;43.32;100954.44;5054972;28;20106;-85
2021/04/24 02:17:51;;;;;;;7.82;4.45;;;;;;;7.95;43.31;100947.53;5054223;28;20053;-83
2021/04/24 02:20:18;;;;;;;11.52;4.88;;;;;;;7.94;43.38;100951.06;5055162;28;20120;-84
2021/04/24 02:22:45;;;;;;;11.82;4.97;;;;;;;7.92;43.36;100956.34;5056616;28;20497;-83
2021/04/24 02:25:15;;;;;;;9.10;5.18;;;;;;;7.89;44.35;100956.41;5055093;28;20053;-83
2021/04/24 02:27:41;;;;;;;10.23;4.75;;;;;;;7.88;43.32;100954.69;5054839;28;20053;-85
2021/04/24 02:30:11;;;;;;;11.52;5.28;;;;;;;7.85;43.90;100965.25;5053514;28;20082;-85
2021/04/24 02:32:38;;;;;;;9.38;3.90;;;;;;;7.83;43.63;100959.22;5052719;28;20453;-85
2021/04/24 02:35:06;;;;;;;8.32;4.65;;;;;;;7.80;43.77;100956.66;5053515;28;20049;-85
2021/04/24 02:37:33;;;;;;;10.23;5.18;;;;;;;7.78;44.10;100961.94;5053217;28;20056;-85
2021/04/24 02:40:00;;;;;;;8.98;4.68;;;;;;;7.76;43.94;100955.91;5052862;28;20049;-85
2021/04/24 02:42:29;;;;;;;7.60;4.88;;;;;;;7.75;44.58;100964.66;5051882;28;20506;-85
2021/04/24 02:44:57;;;;;;;13.45;5.28;;;;;;;7.73;44.00;100962.97;5052803;28;20437;-85
2021/04/24 02:47:25;;;;;;;9.95;4.93;;;;;;;7.72;44.36;100966.47;5052951;28;20064;-85
2021/04/24 02:49:51;;;;;;;8.65;4.70;;;;;;;7.69;44.27;100963.06;5053843;28;20056;-85
2021/04/24 02:52:17;;;;;;;9.40;4.80;;;;;;;7.68;44.59;100963.09;5054181;28;20486;-85
2021/04/24 02:54:43;;;;;;;7.00;4.40;;;;;;;7.67;44.94;100962.22;5052503;28;20494;-86
2021/04/24 02:57:10;;;;;;;10.57;4.53;;;;;;;7.67;44.50;100961.38;5054033;28;20540;-85
2021/04/24 02:59:36;;;;;;;12.07;4.57;;;;;;;7.66;44.69;100963.13;5053842;28;20049;-85
2021/04/24 03:02:03;;;;;;;10.52;4.88;;;;;;;7.65;44.86;100956.16;5052762;28;20045;-86
2021/04/24 03:04:29;;;;;;;9.32;4.90;;;;;;;7.65;45.06;100963.16;5053703;28;20065;-85
2021/04/24 03:06:55;;;;;;;8.13;4.88;;;;;;;7.64;44.68;100958.81;5054022;28;20494;-86
2021/04/24 03:09:21;;;;;;;9.25;5.18;;;;;;;7.64;45.25;100964.06;5052566;28;20049;-85
2021/04/24 03:11:48;;;;;;;7.95;4.28;;;;;;;7.62;45.23;100968.50;5053502;28;20044;-85
2021/04/24 03:14:14;;;;;;;8.90;4.72;;;;;;;7.62;45.03;100965.88;5052233;28;20064;-86
2021/04/24 03:16:40;;;;;;;9.88;4.88;;;;;;;7.61;45.26;100967.63;5053603;28;20053;-85
2021/04/24 03:19:08;;;;;;;13.80;5.10;;;;;;;7.59;45.10;100958.09;5052150;28;20055;-85
2021/04/24 03:21:34;;;;;;;8.68;4.95;;;;;;;7.59;45.38;100965.94;5052093;28;20410;-85
2021/04/24 03:24:03;;;;;;;10.43;5.55;;;;;;;7.57;45.80;100965.97;5053137;28;20071;-86
2021/04/24 03:26:30;;;;;;;12.85;5.78;;;;;;;7.56;45.71;100965.09;5052351;28;20049;-85
2021/04/24 03:28:57;;;;;;;12.10;4.95;;;;;;;7.56;45.51;100961.66;5052091;28;20048;-85
2021/04/24 03:31:23;;;;;;;9.25;5.13;;;;;;;7.56;45.81;100961.66;5053248;28;20095;-85
2021/04/24 03:33:49;;;;;;;12.27;5.10;;;;;;;7.55;45.90;100962.53;5051863;28;20485;-85
2021/04/24 03:36:16;;;;;;;7.88;4.53;;;;;;;7.54;45.68;100963.44;5052138;28;20458;-85
2021/04/24 03:38:42;;;;;;;11.98;5.50;;;;;;;7.53;45.78;100962.59;5053400;28;20059;-86
2021/04/24 03:41:09;;;;;;;11.18;5.03;;;;;;;7.52;45.92;100968.69;5051806;28;20087;-85
2021/04/24 03:43:36;;;;;;;11.73;5.57;;;;;;;7.50;45.85;100978.38;5053318;28;20052;-86
2021/04/24 03:46:02;;;;;;;14.13;5.75;;;;;;;7.49;46.02;100967.91;5051762;28;20102;-85
2021/04/24 03:48:29;;;;;;;10.18;4.80;;;;;;;7.47;46.13;100962.72;5051896;28;20063;-86
2021/04/24 03:50:55;;;;;;;8.98;5.25;;;;;;;7.47;46.26;100972.34;5051623;28;20060;-85
2021/04/24 03:53:21;;;;;;;10.48;5.28;;;;;;;7.46;46.18;100974.09;5052718;28;20056;-85
2021/04/24 03:55:47;;;;;;;14.48;5.97;;;;;;;7.45;46.42;100964.53;5051641;28;20098;-85
2021/04/24 03:58:14;;;;;;;12.50;5.40;;;;;;;7.43;46.73;100969.81;5052839;28;20053;-85
2021/04/24 04:00:40;;;;;;;9.32;5.47;;;;;;;7.45;46.35;100968.91;5051715;28;20048;-85
2021/04/24 04:03:09;;;;;;;11.43;5.22;;;;;;;7.43;47.09;100968.94;5052865;28;20132;-85
2021/04/24 04:05:38;;;;;;;12.15;6.00;;;;;;;7.43;47.35;100979.41;5052544;28;20052;-86
2021/04/24 04:08:06;;;;;;;10.63;4.63;;;;;;;7.44;47.02;100975.88;5052811;28;20049;-85
2021/04/24 04:10:33;;;;;;;10.18;5.18;;;;;;;7.43;47.01;100974.16;5052708;28;20490;-85
2021/04/24 04:13:00;;;;;;;12.38;5.70;;;;;;;7.42;47.19;100978.56;5053140;28;20057;-83
2021/04/24 04:15:28;;;;;;;12.82;5.55;;;;;;;7.41;47.18;100976.81;5052060;28;20535;-83
2021/04/24 04:18:05;;;;;;;12.32;5.43;;;;;;;7.40;48.36;100975.09;5052660;28;20057;-83
2021/04/24 04:20:32;;;;;;;11.63;5.22;;;;;;;7.43;47.02;100974.16;5053827;28;20052;-83
2021/04/24 04:22:58;;;;;;;11.77;5.25;;;;;;;7.42;47.09;100983.81;5052520;28;20575;-85
2021/04/24 04:25:26;;;;;;;10.05;5.55;;;;;;;7.41;47.43;100976.81;5051427;28;20494;-85
2021/04/24 04:27:53;;;;;;;12.95;5.70;;;;;;;7.40;47.25;100982.97;5052333;28;20049;-85
2021/04/24 04:30:20;;;;;;;13.20;5.43;;;;;;;7.40;47.38;100984.75;5052971;28;20057;-86
2021/04/24 04:32:47;;;;;;;16.20;5.63;;;;;;;7.40;47.20;100987.38;5052982;28;20494;-86
2021/04/24 04:35:14;;;;;;;10.27;4.93;;;;;;;7.40;47.63;100992.59;5051813;28;20048;-85
2021/04/24 04:37:40;;;;;;;11.00;5.22;;;;;;;7.39;47.45;100991.72;5052333;28;20049;-85
2021/04/24 04:40:09;;;;;;;10.35;5.18;;;;;;;7.39;47.57;100989.09;5052643;28;20060;-85
2021/04/24 04:42:35;;;;;;;10.10;5.18;;;;;;;7.39;47.69;100985.63;5051311;28;20494;-85
2021/04/24 04:45:02;;;;;;;8.82;5.25;;;;;;;7.39;47.38;100989.09;5052230;28;20080;-85
2021/04/24 04:47:28;;;;;;;12.60;5.85;;;;;;;7.38;47.78;100986.53;5052157;28;20056;-85
2021/04/24 04:49:55;;;;;;;11.77;5.53;;;;;;;7.38;47.73;100991.75;5051331;28;20088;-85
2021/04/24 04:52:21;;;;;;;9.23;5.47;;;;;;;7.37;47.81;100990.88;5052547;28;20543;-85
2021/04/24 04:54:48;;;;;;;10.02;5.40;;;;;;;7.37;47.73;100993.50;5052310;28;20049;-85
2021/04/24 04:57:14;;;;;;;9.25;5.15;;;;;;;7.38;47.82;100983.91;5052287;28;20075;-86
2021/04/24 04:59:40;;;;;;;13.18;5.57;;;;;;;7.39;48.08;100978.63;5051083;28;20045;-85
2021/04/24 05:02:06;;;;;;;24.17;7.75;;;;;;;7.39;48.28;100986.50;5056525;28;20106;-83
2021/04/24 05:04:33;;;;;;;21.08;7.38;;;;;;;7.42;48.50;100986.44;5054537;28;20072;-85
2021/04/24 05:07:02;;;;;;;10.00;5.38;;;;;;;7.40;48.89;100982.97;5056147;28;20052;-86
2021/04/24 05:09:28;;;;;;;11.48;5.47;;;;;;;7.42;48.15;100981.19;5050045;28;20053;-87
2021/04/24 05:11:54;;;;;;;9.85;5.55;;;;;;;7.45;48.27;100985.50;5027651;28;20050;-86
2021/04/24 05:14:21;;;;;;;10.55;5.40;;;;;;;7.47;48.36;100983.69;5040478;28;20061;-86
2021/04/24 05:16:47;;;;;;;9.73;5.22;;;;;;;7.50;48.53;100981.00;5039835;28;20050;-86
2021/04/24 05:19:14;;;;;;;10.52;5.18;;;;;;;7.52;48.52;100984.41;5042033;28;20064;-86
2021/04/24 05:22:04;;;;;;;12.40;5.43;;;;;;;7.51;50.01;100984.47;5040628;28;20051;-86
2021/04/24 05:24:36;;;;;;;14.10;5.45;;;;;;;7.56;49.80;100990.47;5039588;28;20049;-86
2021/04/24 05:27:43;;;;;;;;;;;;;;;;;;;;;
2021/04/24 05:30:33;;;;;;;;;;;;;;;7.68;48.28;100982.31;5040730;28;20049;-86
2021/04/24 05:34:17;;;;;;;;;;;;;;;;;;;;;
2021/04/24 05:44:48;;;;;;;10.50;4.80;;;;;;;8.01;49.76;100975.34;5036008;28;20103;-83
2021/04/24 05:48:21;;;;;;;;;;;;;;;;;;;;;
2021/04/24 05:51:39;;;;;;;;;;;;;;;;;;;;;
2021/04/24 05:54:38;;;;;;;8.07;5.13;;;;;;;8.24;49.60;100971.25;4977935;28;20522;-83
2021/04/24 06:01:08;;;;;;;10.63;5.13;;;;;;;8.30;49.69;100971.94;4978030;28;20512;-83
2021/04/24 06:04:00;;;;;;;8.98;4.97;;;;;;;8.34;49.70;100970.94;4947093;28;20051;-83
2021/04/24 06:06:50;;;;;;;8.52;5.10;;;;;;;8.38;49.97;100971.75;4976827;28;20055;-83
2021/04/24 06:09:49;;;;;;;7.82;5.05;;;;;;;8.38;50.06;100979.59;4976884;28;20134;-83
2021/04/24 06:12:24;;;;;;;15.13;5.60;;;;;;;8.46;48.92;100988.09;4955820;28;20046;-83
2021/04/24 06:14:50;;;;;;;9.85;5.15;;;;;;;8.50;49.02;100985.41;4976304;28;20047;-83
2021/04/24 06:17:33;;;;;;;10.45;5.70;;;;;;;8.53;49.33;100987.97;4960390;28;20061;-83
2021/04/24 06:20:05;;;;;;;11.30;5.45;;;;;;;8.58;49.33;100984.31;4961521;28;20515;-83
2021/04/24 06:23:05;;;;;;;10.20;4.95;;;;;;;8.60;50.28;100984.28;5010979;28;20494;-84
2021/04/24 06:25:34;;;;;;;14.93;5.07;;;;;;;8.68;49.04;100978.78;5037342;28;20049;-83
2021/04/24 06:28:00;;;;;;;8.15;5.32;;;;;;;8.71;49.62;100969.06;5035934;28;20064;-83
2021/04/24 06:30:28;;;;;;;11.60;5.28;;;;;;;8.76;49.49;100974.19;5037487;28;20501;-83
2021/04/24 06:32:55;;;;;;;9.65;4.80;;;;;;;8.82;49.78;100978.41;5037992;28;20079;-83
2021/04/24 06:35:28;;;;;;;8.27;4.28;;;;;;;8.86;51.03;100975.63;5034740;28;20057;-83
2021/04/24 06:38:06;;;;;;;7.13;4.22;;;;;;;8.93;49.68;100971.03;5036844;28;20060;-83
2021/04/24 06:40:43;;;;;;;11.00;4.65;;;;;;;9.01;49.63;100970.78;5039771;28;20056;-83
2021/04/24 06:43:09;;;;;;;8.55;4.38;;;;;;;9.08;50.05;100974.13;5038778;28;20057;-83
2021/04/24 06:45:36;;;;;;;8.57;4.15;;;;;;;9.14;50.05;100971.28;5037486;28;20049;-83
2021/04/24 06:48:02;;;;;;;7.50;4.43;;;;;;;9.21;49.85;100979.81;5035492;28;20068;-83
2021/04/24 06:50:42;;;;;;;8.18;4.53;;;;;;;9.26;49.88;100980.53;5036051;28;20045;-83
2021/04/24 06:53:15;;;;;;;7.22;3.97;;;;;;;9.32;50.75;100975.09;5036478;28;20075;-83
2021/04/24 06:56:00;;;;;;;7.18;4.10;;;;;;;9.37;51.37;100981.06;5036092;28;20065;-83
2021/04/24 06:58:40;;;;;;;8.85;4.03;;;;;;;9.47;50.57;100981.63;5035076;28;20136;-83
2021/04/24 07:01:39;;;;;;;9.98;4.57;;;;;;;9.53;50.69;100985.81;5037697;28;20048;-83
2021/04/24 07:04:10;;;;;;;8.30;4.18;;;;;;;9.64;49.67;100977.56;5035795;28;20049;-83
2021/04/24 07:06:37;;;;;;;10.85;4.15;;;;;;;9.70;49.99;100984.38;5039039;28;20060;-83
2021/04/24 07:09:06;;;;;;;8.88;4.53;;;;;;;9.76;49.95;100981.56;5037405;28;20132;-83
2021/04/24 07:12:03;;;;;;;10.82;4.30;;;;;;;9.80;50.71;100984.94;5040592;28;20491;-83
2021/04/24 07:14:43;;;;;;;8.15;3.92;;;;;;;9.88;49.75;100988.19;5037337;28;20049;-83
2021/04/24 07:17:14;;;;;;;8.13;4.38;;;;;;;9.89;50.20;100987.25;5036349;28;20141;-83
2021/04/24 07:19:46;;;;;;;5.05;3.53;;;;;;;9.94;49.44;100981.84;5038268;28;20050;-83
2021/04/24 07:22:12;;;;;;;9.48;4.38;;;;;;;9.98;49.78;100981.69;5036648;28;20060;-83
2021/04/24 07:24:44;;;;;;;11.98;4.63;;;;;;;10.03;50.14;100982.38;5038275;28;20568;-83
2021/04/24 07:27:16;;;;;;;7.93;4.07;;;;;;;10.11;50.81;100976.00;5035888;28;20136;-83
2021/04/24 07:29:48;;;;;;;10.85;4.55;;;;;;;10.21;49.76;100977.38;5036532;28;20053;-83
2021/04/24 07:32:21;;;;;;;11.77;4.30;;;;;;;10.29;49.54;100977.13;5036777;28;20048;-83
2021/04/24 07:34:54;;;;;;;9.80;4.00;;;;;;;10.35;49.19;100981.31;5038234;28;20079;-83
2021/04/24 07:37:23;;;;;;;9.43;4.63;;;;;;;10.41;49.94;100978.44;5036363;28;20065;-83
2021/04/24 07:40:04;;;;;;;13.00;4.20;;;;;;;10.48;49.43;100972.06;5035154;28;20060;-83
2021/04/24 07:42:35;;;;;;;15.10;4.40;;;;;;;10.55;49.32;100970.06;5037313;28;20140;-83
2021/04/24 07:45:14;;;;;;;7.43;3.60;;;;;;;10.60;49.64;100968.13;5037605;28;20049;-83
2021/04/24 07:47:53;;;;;;;7.85;4.00;;;;;;;10.71;49.11;100967.72;5036762;28;20065;-83
2021/04/24 07:50:19;;;;;;;5.38;3.47;;;;;;;10.80;48.88;100969.97;5036577;28;20053;-83
2021/04/24 07:52:51;;;;;;;9.48;3.88;;;;;;;10.86;49.43;100963.63;5036598;28;20084;-83
2021/04/24 07:55:22;;;;;;;7.32;3.92;;;;;;;10.97;48.77;100973.75;5036297;28;20449;-83
2021/04/24 07:58:02;;;;;;;6.75;3.55;;;;;;;11.04;49.41;100971.72;5034607;28;20053;-83
2021/04/24 08:00:32;;;;;;;6.25;3.65;;;;;;;11.17;48.66;100978.22;5036430;28;20057;-83
2021/04/24 08:02:58;;;;;;;7.45;3.58;;;;;;;11.27;48.50;100973.44;5034361;28;20049;-83
2021/04/24 08:05:25;;;;;;;7.22;3.25;;;;;;;11.38;48.16;100978.28;5036380;28;20061;-83
2021/04/24 08:08:01;;;;;;;9.80;4.30;;;;;;;11.48;47.85;100978.78;5036588;28;20050;-83
2021/04/24 08:10:42;;;;;;;8.13;3.60;;;;;;;11.57;47.71;100973.13;5034650;28;20132;-83
2021/04/24 08:13:32;;;;;;;5.38;3.17;;;;;;;11.67;47.53;100981.47;5032964;28;20060;-83
2021/04/24 08:16:03;;;;;;;7.15;3.30;;;;;;;11.72;47.34;100976.03;5034872;28;20064;-83
2021/04/24 08:18:34;;;;;;;7.68;3.58;;;;;;;11.78;46.80;100975.75;5035704;28;20049;-83
2021/04/24 08:21:32;;;;;;;9.15;3.65;;;;;;;11.86;46.49;100978.91;4942444;29;20138;-83
2021/04/24 08:24:27;;;;;;;7.95;3.88;;;;;;;11.86;46.52;100973.66;4938647;29;20062;-83
2021/04/24 08:26:57;;;;;;;7.32;4.10;;;;;;;11.96;46.32;100970.63;4937802;29;20051;-83
2021/04/24 08:29:27;;;;;;;8.40;3.65;;;;;;;11.99;46.22;100976.63;4937899;29;20083;-83
2021/04/24 08:31:56;;;;;;;10.60;4.72;;;;;;;12.08;46.73;100971.91;4937562;29;20047;-83
2021/04/24 08:34:27;;;;;;;6.63;4.00;;;;;;;12.18;46.72;100981.13;4938642;29;20051;-83
2021/04/24 08:36:53;;;;;;;8.90;4.20;;;;;;;12.29;46.57;100977.16;4938845;29;20062;-83
2021/04/24 08:39:24;;;;;;;8.82;4.45;;;;;;;12.41;46.37;100976.59;4988873;28;20055;-83
2021/04/24 08:41:54;;;;;;;11.07;4.97;;;;;;;12.51;46.16;100974.41;5037083;28;20060;-83
2021/04/24 08:44:20;;;;;;;9.75;4.45;;;;;;;12.60;45.84;100978.41;5036535;28;20049;-83
2021/04/24 08:46:57;;;;;;;11.23;4.38;;;;;;;12.67;45.70;100985.13;5039162;28;20053;-83
2021/04/24 08:49:25;;;;;;;11.52;4.35;;;;;;;12.76;45.68;100982.03;5039199;28;20045;-83
2021/04/24 08:51:52;;;;;;;7.22;3.60;;;;;;;12.86;45.17;100982.47;5039638;28;20045;-83
2021/04/24 08:54:27;;;;;;;6.57;3.80;;;;;;;12.92;45.63;100973.41;5038119;28;20062;-83
2021/04/24 08:56:53;;;;;;;12.23;4.25;;;;;;;13.05;45.28;100978.13;5038657;28;20053;-83
2021/04/24 08:59:20;;;;;;;9.20;4.47;;;;;;;13.14;45.24;100972.38;5037921;28;20123;-83
2021/04/24 09:01:46;;;;;;;5.95;3.83;;;;;;;13.26;44.94;100973.56;5038192;28;20091;-83
2021/04/24 09:04:15;;;;;;;8.75;4.15;;;;;;;13.34;44.20;100975.84;5037375;28;20465;-83
2021/04/24 09:06:41;;;;;;;6.45;4.57;;;;;;;13.41;43.97;100975.47;5036671;28;20060;-83
2021/04/24 09:09:12;;;;;;;10.95;4.75;;;;;;;13.47;43.68;100970.81;5038041;28;20050;-83
2021/04/24 09:11:46;;;;;;;5.32;3.50;;;;;;;13.50;42.77;100973.34;5037831;28;20049;-83
2021/04/24 09:14:21;;;;;;;7.90;3.85;;;;;;;13.51;43.01;100970.63;5037658;28;20053;-83
2021/04/24 09:16:59;;;;;;;11.02;4.10;;;;;;;13.49;43.03;100972.47;5039711;28;20063;-83
2021/04/24 09:19:37;;;;;;;9.23;4.53;;;;;;;13.51;43.01;100967.09;5036472;28;20057;-83
2021/04/24 09:22:18;;;;;;;9.85;5.55;;;;;;;13.52;43.51;100964.38;5036456;28;20486;-83
2021/04/24 09:24:50;;;;;;;8.55;4.35;;;;;;;13.60;43.63;100958.69;5037313;28;20172;-83
2021/04/24 09:27:21;;;;;;;14.05;4.90;;;;;;;13.69;44.01;100960.03;5038709;28;20045;-83
2021/04/24 09:30:21;;;;;;;7.93;4.28;;;;;;;13.80;43.69;100970.06;5038029;28;20084;-84
2021/04/24 09:33:02;;;;;;;8.15;4.07;;;;;;;13.93;44.03;100965.84;5037029;28;20302;-83
2021/04/24 09:35:53;;;;;;;10.25;4.22;;;;;;;14.04;43.27;100970.59;5036471;28;20104;-83
2021/04/24 09:38:27;;;;;;;9.88;4.30;;;;;;;14.17;43.31;100972.59;5037352;28;20042;-83
2021/04/24 09:41:13;;;;;;;12.63;4.55;;;;;;;14.24;42.15;100963.38;5035546;28;20055;-83
2021/04/24 09:44:09;;;;;;;10.23;4.43;;;;;;;14.29;42.29;100960.50;5037741;28;20107;-83
2021/04/24 09:46:56;;;;;;;11.73;4.40;;;;;;;14.35;41.93;100960.16;5037809;28;20053;-83
2021/04/24 09:49:24;;;;;;;10.55;4.93;;;;;;;14.32;41.93;100957.69;5037910;28;20075;-84
2021/04/24 09:52:01;;;;;;;8.48;4.20;;;;;;;14.28;42.08;100951.69;5035558;28;20049;-84
2021/04/24 09:54:33;;;;;;;6.18;3.70;;;;;;;14.32;41.88;100950.59;5036937;28;20057;-83
2021/04/24 09:56:59;;;;;;;12.43;4.32;;;;;;;14.41;42.10;100943.94;5037535;28;20053;-83
2021/04/24 09:59:29;;;;;;;5.85;3.70;;;;;;;14.48;41.51;100946.25;5039059;28;20057;-83
2021/04/24 10:02:22;;;;;;;7.75;3.58;;;;;;;14.55;41.71;100942.34;5038800;28;20049;-84
2021/04/24 10:05:09;;;;;;;8.00;3.97;;;;;;;14.64;41.84;100940.97;5036919;28;20045;-83
2021/04/24 10:07:41;;;;;;;7.32;3.90;;;;;;;14.77;41.23;100944.66;5037530;28;20510;-83
2021/04/24 10:10:34;;;;;;;9.38;4.30;;;;;;;14.83;40.96;100946.13;5037470;28;20053;-83
2021/04/24 10:13:08;;;;;;;11.23;3.78;;;;;;;14.94;40.84;100938.44;5036759;28;20057;-83
2021/04/24 10:15:38;;;;;;;6.68;3.90;;;;;;;15.05;41.48;100942.28;5036955;28;20045;-83
2021/04/24 10:18:07;;;;;;;8.43;4.47;;;;;;;15.19;41.59;100936.19;5038196;28;20465;-84
2021/04/24 10:20:40;;;;;;;6.50;3.47;;;;;;;15.32;40.75;100936.31;5037020;28;20050;-83
2021/04/24 10:23:19;;;;;;;8.40;4.10;;;;;;;15.46;40.83;100933.72;5038554;28;20060;-83
2021/04/24 10:25:46;;;;;;;6.15;3.85;;;;;;;15.58;40.34;100937.44;5036703;28;20045;-83
2021/04/24 10:28:16;;;;;;;6.78;3.45;;;;;;;15.67;40.33;100925.44;5035746;28;20042;-83
2021/04/24 10:30:45;;;;;;;6.53;3.53;;;;;;;15.74;39.88;100931.25;5033791;28;20395;-84
2021/04/24 10:33:19;;;;;;;6.10;3.47;;;;;;;15.82;39.29;100936.94;5035133;28;20068;-83
2021/04/24 10:35:45;;;;;;;;;;;;;;;15.91;39.80;100932.84;5035526;28;20081;-83
2021/04/24 10:38:12;;;;;;;7.97;3.22;;;;;;;16.05;39.97;100937.38;5034080;28;19932;-83
2021/04/24 10:40:47;;;;;;;9.27;4.18;;;;;;;16.12;39.90;100929.88;5030639;28;20049;-83
2021/04/24 10:43:23;;;;;;;8.00;3.70;;;;;;;16.25;39.36;100933.47;5024194;28;20055;-84
2021/04/24 10:46:17;;;;;;;7.97;3.88;;;;;;;16.42;38.84;100935.06;5036089;28;20060;-83
2021/04/24 10:49:20;;;;;;;7.30;4.20;;;;;;;16.61;39.05;100925.09;5036678;28;20057;-84
2021/04/24 10:52:21;;;;;;;7.30;3.92;;;;;;;16.86;40.06;100927.00;5037858;28;20490;-83
2021/04/24 10:55:14;;;;;;;5.85;3.58;;;;;;;17.21;39.51;100930.16;5037222;28;20045;-84
2021/04/24 10:58:00;;;;;;;5.72;3.28;;;;;;;17.61;38.69;100929.28;5037956;28;20061;-84
2021/04/24 11:00:33;;;;;;;9.38;3.80;;;;;;;18.08;39.72;100911.84;5037259;28;20081;-84
2021/04/24 11:03:05;;;;;;;8.68;3.13;;;;;;;18.57;38.66;100914.63;5036827;28;20403;-83
2021/04/24 11:05:46;;;;;;;7.45;3.20;;;;;;;19.02;36.75;100911.34;5035713;28;20066;-84
2021/04/24 11:08:25;;;;;;;5.00;3.40;;;;;;;19.40;35.37;100905.97;5035792;28;20059;-83
2021/04/24 11:11:04;;;;;;;6.43;3.10;;;;;;;19.70;35.29;100906.38;5033621;28;20053;-83
2021/04/24 11:13:54;;;;;;;6.28;2.92;;;;;;;19.86;34.88;100909.56;5034044;28;20053;-83
2021/04/24 11:16:50;;;;;;;4.93;2.90;;;;;;;20.06;33.95;100901.81;5035723;28;20180;-83
2021/04/24 11:19:47;;;;;;;6.38;2.97;;;;;;;20.21;34.18;100898.88;5035005;28;20061;-83
2021/04/24 11:22:32;;;;;;;7.10;2.78;;;;;;;20.28;32.97;100902.78;5035341;28;20129;-83
2021/04/24 11:25:16;;;;;;;5.95;2.38;;;;;;;20.31;33.66;100902.53;5034682;28;20517;-83
2021/04/24 11:28:11;;;;;;;2.20;1.80;;;;;;;20.26;31.97;100894.88;5034786;28;20064;-83
2021/04/24 11:31:00;;;;;;;4.75;2.25;;;;;;;20.20;31.60;100897.19;5033388;28;20107;-83
2021/04/24 11:33:38;;;;;;;4.90;2.25;;;;;;;20.18;31.59;100894.63;5034816;28;20110;-83
2021/04/24 11:36:26;;;;;;;4.57;2.45;;;;;;;20.20;31.84;100891.84;5035259;28;20057;-83
2021/04/24 11:39:04;;;;;;;5.05;2.45;;;;;;;20.31;31.50;100892.69;5034154;28;20053;-83
2021/04/24 11:41:35;;;;;;;8.88;3.05;;;;;;;20.47;32.00;100890.59;5033927;28;20056;-83
2021/04/24 11:44:17;;;;;;;7.55;2.67;;;;;;;20.56;31.81;100888.03;5033795;28;20066;-84
2021/04/24 11:46:48;;;;;;;5.50;2.75;;;;;;;20.77;31.65;100891.75;5033222;28;20060;-83
2021/04/24 11:49:17;;;;;;;7.50;3.17;;;;;;;20.87;31.06;100895.41;5034363;28;20049;-83
2021/04/24 11:52:07;;;;;;;8.13;3.08;;;;;;;20.94;30.91;100893.91;5032593;28;20395;-83
2021/04/24 11:54:38;;;;;;;7.00;2.97;;;;;;;21.07;31.85;100893.75;5034052;28;20053;-83
2021/04/24 11:57:07;;;;;;;3.53;2.15;;;;;;;21.16;31.19;100891.28;5034575;28;20425;-83
2021/04/24 11:59:36;;;;;;;7.93;2.72;;;;;;;21.22;30.89;100885.38;5034473;28;20061;-83
2021/04/24 12:02:24;;;;;;;6.25;2.63;;;;;;;21.19;30.64;100880.28;5035341;28;20545;-83
2021/04/24 12:05:00;;;;;;;6.75;2.85;;;;;;;21.28;30.61;100881.34;5034329;28;20490;-83
2021/04/24 12:07:27;;;;;;;5.20;2.78;;;;;;;21.37;30.07;100888.59;5033930;28;20053;-83
2021/04/24 12:10:00;;;;;;;4.70;2.45;;;;;;;21.38;30.08;100889.47;5034104;28;20053;-83
2021/04/24 12:12:31;;;;;;;4.35;2.58;;;;;;;21.29;29.60;100888.41;5033638;28;20108;-83
2021/04/24 12:15:17;;;;;;;6.80;2.63;;;;;;;21.19;29.27;100878.47;5033179;28;20509;-83